Time;durP1;ratioP1;P1;durP2;ratioP2;P2;SDS_P1;SDS_P2;PMS_P1;PMS_P2;Temp;Humidity;BMP_temperature;BMP_pressure;BME280_temperature;BME280_humidity;BME280_pressure;Samples;Min_cycle;Max_cycle;Signal;HPM_P1;HPM_P2
2024/03/22 00:00:05;;;;;;;;;;;;;;;5.06;100.00;101214.44;5055426;28;19974;-66
2024/03/22 00:02:31;;;;;;;;;;;;;;;5.06;100.00;101206.50;5055248;28;19920;-65
2024/03/22 00:04:59;;;;;;;;;;;;;;;5.01;100.00;101203.38;5053839;28;19927;-63
2024/03/22 00:07:28;;;;;;;;;;;;;;;5.01;100.00;101206.03;5053993;28;19922;-65
2024/03/22 00:09:54;;;;;;;;;;;;;;;4.97;100.00;101202.78;5055232;28;19932;-64
2024/03/22 00:12:19;;;;;;;;;;;;;;;4.95;100.00;101198.56;5070168;28;19920;-64
2024/03/22 00:14:44;;;;;;;;;;;;;;;4.89;100.00;101191.94;5054950;28;19921;-64
2024/03/22 00:17:10;;;;;;;;;;;;;;;4.90;100.00;101182.22;5055076;28;19921;-66
2024/03/22 00:19:35;;;;;;;;;;;;;;;4.91;100.00;101176.81;5054561;28;19943;-66
2024/03/22 00:22:00;;;;;;;;;;;;;;;4.90;100.00;101176.94;5070659;28;19921;-65
2024/03/22 00:24:27;;;;;;;;;;;;;;;4.89;100.00;101180.53;5054899;28;19925;-65
2024/03/22 00:26:52;;;;;;;;;;;;;;;4.95;100.00;101182.72;5063364;28;19925;-63
2024/03/22 00:29:18;;;;;;;;;;;;;;;4.98;100.00;101179.84;5074795;28;19920;-65
2024/03/22 00:31:43;;;;;;;;;;;;;;;5.03;100.00;101177.69;5074693;28;19959;-66
2024/03/22 00:34:08;;;;;;;;;;;;;;;5.03;100.00;101175.06;5074136;28;19921;-65
2024/03/22 00:36:34;;;;;;;;;;;;;;;5.02;100.00;101169.91;5074186;28;20383;-67
2024/03/22 00:38:59;;;;;;;;;;;;;;;5.04;100.00;101179.38;5073401;28;19928;-70
2024/03/22 00:41:24;;;;;;;;;;;;;;;5.04;100.00;101168.81;5074506;28;20424;-63
2024/03/22 00:43:50;;;;;;;;;;;;;;;5.01;100.00;101171.69;5072877;28;19921;-68
2024/03/22 00:46:15;;;;;;;;;;;;;;;4.98;100.00;101169.31;5072929;28;19931;-65
2024/03/22 00:48:40;;;;;;;;;;;;;;;4.95;100.00;101159.81;5074049;28;20020;-66
2024/03/22 00:51:07;;;;;;;;;;;;;;;4.94;100.00;101167.84;5073002;28;19921;-64
2024/03/22 00:53:32;;;;;;;;;;;;;;;4.88;100.00;101163.00;5077643;28;20283;-67
2024/03/22 00:55:59;;;;;;;;;;;;;;;4.91;100.00;101158.34;5075852;28;19980;-67
2024/03/22 00:58:25;;;;;;;;;;;;;;;4.93;100.00;101156.47;5075995;28;19931;-64
2024/03/22 01:00:50;;;;;;;;;;;;;;;4.85;100.00;101147.41;5075200;28;19920;-65
2024/03/22 01:03:15;;;;;;;;;;;;;;;4.82;100.00;101145.00;5074850;28;19942;-65
2024/03/22 01:05:42;;;;;;;;;;;;;;;4.75;100.00;101149.91;5075119;28;19927;-65
2024/03/22 01:08:07;;;;;;;;;;;;;;;4.75;100.00;101141.16;5090989;28;20048;-66
2024/03/22 01:10:33;;;;;;;;;;;;;;;4.71;100.00;101143.19;5074362;28;20039;-67
2024/03/22 01:12:58;;;;;;;;;;;;;;;4.76;100.00;101137.56;5074480;28;19928;-66
2024/03/22 01:15:23;;;;;;;;;;;;;;;4.76;100.00;101129.66;5077552;28;20095;-67
2024/03/22 01:17:49;;;;;;;;;;;;;;;4.74;100.00;101128.94;5074989;28;19927;-69
2024/03/22 01:20:14;;;;;;;;;;;;;;;4.78;100.00;101125.09;5075720;28;19951;-67
2024/03/22 01:22:40;;;;;;;;;;;;;;;4.79;100.00;101116.22;5080613;28;19920;-68
2024/03/22 01:25:05;;;;;;;;;;;;;;;4.76;100.00;101100.63;5094678;28;19963;-67
2024/03/22 01:27:31;;;;;;;;;;;;;;;4.73;100.00;101103.50;5078148;28;19931;-66
2024/03/22 01:29:56;;;;;;;;;;;;;;;4.66;100.00;101090.78;5078352;28;20391;-64
2024/03/22 01:32:21;;;;;;;;;;;;;;;4.64;100.00;101097.13;5074744;28;19938;-65
2024/03/22 01:34:47;;;;;;;;;;;;;;;4.66;100.00;101096.06;5075420;28;20302;-65
2024/03/22 01:37:12;;;;;;;;;;;;;;;4.72;100.00;101093.91;5075383;28;19928;-67
2024/03/22 01:39:37;;;;;;;;;;;;;;;4.77;100.00;101087.31;5074909;28;20275;-64
2024/03/22 01:42:03;;;;;;;;;;;;;;;4.74;100.00;101081.44;5076195;28;20273;-64
2024/03/22 01:44:28;;;;;;;;;;;;;;;4.66;100.00;101082.88;5075587;28;19921;-64
2024/03/22 01:46:54;;;;;;;;;;;;;;;4.70;100.00;101082.63;5075009;28;20361;-65
2024/03/22 01:49:20;;;;;;;;;;;;;;;4.73;100.00;101085.03;5073504;28;19920;-65
2024/03/22 01:51:46;;;;;;;;;;;;;;;4.73;100.00;101077.97;5071998;28;19929;-63
2024/03/22 01:54:11;;;;;;;;;;;;;;;4.77;100.00;101075.91;5073442;28;20492;-65
2024/03/22 01:56:37;;;;;;;;;;;;;;;4.82;100.00;101086.97;5088620;28;19924;-66
2024/03/22 01:59:02;;;;;;;;;;;;;;;4.86;100.00;101075.22;5073249;28;20320;-64
2024/03/22 02:01:28;;;;;;;;;;;;;;;4.91;100.00;101070.41;5071726;28;19920;-68
2024/03/22 02:03:53;;;;;;;;;;;;;;;4.94;100.00;101067.56;5056024;28;19928;-66
2024/03/22 02:06:18;;;;;;;;;;;;;;;4.93;100.00;101071.16;5072752;28;19920;-65
2024/03/22 02:08:44;;;;;;;;;;;;;;;4.88;100.00;101062.72;5072063;28;19931;-66
2024/03/22 02:11:09;;;;;;;;;;;;;;;4.84;100.00;101067.41;5076485;28;19999;-65
2024/03/22 02:13:34;;;;;;;;;;;;;;;4.82;100.00;101073.75;5073517;28;20015;-66
2024/03/22 02:16:02;;;;;;;;;;;;;;;4.84;100.00;101077.97;5071295;28;20394;-65
2024/03/22 02:18:47;;;;;;;;;;;;;;;4.85;100.00;101070.88;5071763;28;19920;-65
2024/03/22 02:21:13;;;;;;;;;;;;;;;4.83;100.00;101059.63;5073166;28;19921;-65
2024/03/22 02:23:39;;;;;;;;;;;;;;;4.82;100.00;101063.22;5072811;28;19928;-65
2024/03/22 02:26:07;;;;;;;;;;;;;;;4.78;100.00;101056.50;5072691;28;20077;-66
2024/03/22 02:28:33;;;;;;;;;;;;;;;4.76;100.00;101055.78;5072118;28;19924;-64
2024/03/22 02:30:59;;;;;;;;;;;;;;;4.80;100.00;101054.56;5072511;28;20517;-66
2024/03/22 02:33:24;;;;;;;;;;;;;;;4.87;100.00;101045.22;5054554;28;19932;-67
2024/03/22 02:35:50;;;;;;;;;;;;;;;4.90;100.00;101047.63;5072967;28;19920;-66
2024/03/22 02:38:15;;;;;;;;;;;;;;;4.93;100.00;101050.03;5071684;28;19921;-67
2024/03/22 02:40:43;;;;;;;;;;;;;;;4.89;100.00;101044.13;5072815;28;19920;-65
2024/03/22 02:43:08;;;;;;;;;;;;;;;4.90;100.00;101040.53;5071976;28;19920;-67
2024/03/22 02:45:33;;;;;;;;;;;;;;;4.93;100.00;101039.50;5072306;28;20434;-66
2024/03/22 02:47:58;;;;;;;;;;;;;;;4.91;100.00;101038.75;5073081;28;20023;-64
2024/03/22 02:50:24;;;;;;;;;;;;;;;4.93;100.00;101036.84;5072413;28;19978;-66
2024/03/22 02:52:50;;;;;;;;;;;;;;;4.93;100.00;101031.56;5070907;28;19921;-65
2024/03/22 02:55:15;;;;;;;;;;;;;;;4.94;100.00;101018.25;5071993;28;20007;-68
2024/03/22 02:57:40;;;;;;;;;;;;;;;4.98;100.00;101027.59;5071924;28;19988;-65
2024/03/22 03:00:06;;;;;;;;;;;;;;;5.00;100.00;101024.84;5071926;28;19920;-64
2024/03/22 03:02:31;;;;;;;;;;;;;;;4.99;100.00;101028.44;5071008;28;19924;-67
2024/03/22 03:04:57;;;;;;;;;;;;;;;4.93;100.00;101021.84;5054137;28;19920;-68
2024/03/22 03:07:23;;;;;;;;;;;;;;;4.93;100.00;101023.66;5072124;28;20300;-66
2024/03/22 03:09:48;;;;;;;;;;;;;;;4.86;100.00;101020.63;5071970;28;19920;-68
2024/03/22 03:12:14;;;;;;;;;;;;;;;4.79;100.00;101021.22;5071928;28;20401;-66
2024/03/22 03:14:39;;;;;;;;;;;;;;;4.83;100.00;101025.31;5070827;28;19920;-67
2024/03/22 03:17:04;;;;;;;;;;;;;;;4.84;100.00;101026.97;5071919;28;19920;-66
2024/03/22 03:19:30;;;;;;;;;;;;;;;4.82;100.00;101015.72;5075709;28;19920;-69
2024/03/22 03:21:55;;;;;;;;;;;;;;;4.83;100.00;101012.13;5076562;28;19927;-65
2024/03/22 03:24:20;;;;;;;;;;;;;;;4.85;100.00;101010.19;5076297;28;19924;-64
2024/03/22 03:26:48;;;;;;;;;;;;;;;4.87;100.00;101003.84;5075601;28;20023;-65
2024/03/22 03:29:13;;;;;;;;;;;;;;;4.85;100.00;101004.91;5075694;28;20370;-67
2024/03/22 03:31:39;;;;;;;;;;;;;;;4.82;100.00;100991.97;5076027;28;20019;-70
2024/03/22 03:34:04;;;;;;;;;;;;;;;4.79;100.00;101000.97;5075340;28;19924;-65
2024/03/22 03:36:29;;;;;;;;;;;;;;;4.84;100.00;100992.69;5076138;28;19990;-65
2024/03/22 03:38:55;;;;;;;;;;;;;;;4.86;100.00;100988.13;5076301;28;20267;-66
2024/03/22 03:41:20;;;;;;;;;;;;;;;4.86;100.00;100978.41;5076574;28;19920;-65
2024/03/22 03:43:45;;;;;;;;;;;;;;;4.92;100.00;100974.47;5075628;28;19925;-64
2024/03/22 03:46:11;;;;;;;;;;;;;;;4.85;100.00;100967.97;5074807;28;19927;-67
2024/03/22 03:48:36;;;;;;;;;;;;;;;4.77;100.00;100971.22;5074269;28;20412;-65
2024/03/22 03:51:03;;;;;;;;;;;;;;;4.77;100.00;100970.38;5075581;28;20490;-67
2024/03/22 03:53:29;;;;;;;;;;;;;;;4.75;100.00;100967.03;5074074;28;19921;-65
2024/03/22 03:55:54;;;;;;;;;;;;;;;4.76;100.00;100960.78;5076089;28;19947;-67
2024/03/22 03:58:19;;;;;;;;;;;;;;;4.66;100.00;100956.25;5075138;28;20375;-69
2024/03/22 04:00:45;;;;;;;;;;;;;;;4.63;100.00;100964.41;5075380;28;20491;-66
2024/03/22 04:03:10;;;;;;;;;;;;;;;4.66;100.00;100956.25;5077611;28;19920;-66
2024/03/22 04:05:35;;;;;;;;;;;;;;;4.69;100.00;100960.44;5078727;28;19921;-66
2024/03/22 04:08:01;;;;;;;;;;;;;;;4.64;100.00;100959.97;5075849;28;20480;-66
2024/03/22 04:10:26;;;;;;;;;;;;;;;4.58;100.00;100953.34;5076138;28;19920;-67
2024/03/22 04:12:51;;;;;;;;;;;;;;;4.52;100.00;100948.53;5073946;28;19920;-67
2024/03/22 04:15:17;;;;;;;;;;;;;;;4.53;100.00;100950.22;5073515;28;19927;-68
2024/03/22 04:17:42;;;;;;;;;;;;;;;4.55;100.00;100948.31;5075573;28;19921;-68
2024/03/22 04:20:08;;;;;;;;;;;;;;;4.49;100.00;100935.59;5076633;28;19921;-66
2024/03/22 04:22:33;;;;;;;;;;;;;;;4.47;100.00;100942.78;5075582;28;19920;-68
2024/03/22 04:25:00;;;;;;;;;;;;;;;4.47;100.00;100941.94;5076974;28;19931;-67
2024/03/22 04:27:25;;;;;;;;;;;;;;;4.49;100.00;100940.03;5074683;28;19970;-65
2024/03/22 04:29:50;;;;;;;;;;;;;;;4.52;100.00;100935.34;5073400;28;19920;-69
2024/03/22 04:32:16;;;;;;;;;;;;;;;4.57;100.00;100933.19;5075490;28;19920;-67
2024/03/22 04:34:42;;;;;;;;;;;;;;;4.60;100.00;100932.94;5075599;28;19928;-67
2024/03/22 04:37:07;;;;;;;;;;;;;;;4.61;100.00;100929.34;5074585;28;19921;-68
2024/03/22 04:39:32;;;;;;;;;;;;;;;4.56;100.00;100930.69;5073915;28;19921;-68
2024/03/22 04:41:58;;;;;;;;;;;;;;;4.54;100.00;100932.59;5073486;28;19920;-71
2024/03/22 04:44:25;;;;;;;;;;;;;;;4.54;100.00;100933.44;5074622;28;20283;-67
2024/03/22 04:46:50;;;;;;;;;;;;;;;4.54;100.00;100928.16;5074474;28;19920;-67
2024/03/22 04:49:15;;;;;;;;;;;;;;;4.58;100.00;100929.59;5074510;28;19930;-66
2024/03/22 04:51:41;;;;;;;;;;;;;;;4.57;100.00;100917.38;5074438;28;19966;-65
2024/03/22 04:54:06;;;;;;;;;;;;;;;4.54;100.00;100914.97;5074341;28;19920;-71
2024/03/22 04:56:32;;;;;;;;;;;;;;;4.55;100.00;100914.00;5073061;28;19927;-73
2024/03/22 04:58:57;;;;;;;;;;;;;;;4.56;100.00;100909.56;5074520;28;19927;-67
2024/03/22 05:01:23;;;;;;;;;;;;;;;4.55;100.00;100903.47;5075494;28;19921;-67
2024/03/22 05:03:49;;;;;;;;;;;;;;;4.54;100.00;100891.22;5074382;28;20014;-67
2024/03/22 05:06:14;;;;;;;;;;;;;;;4.52;100.00;100890.53;5072330;28;19963;-64
2024/03/22 05:08:41;;;;;;;;;;;;;;;4.57;100.00;100879.59;5073810;28;19925;-65
2024/03/22 05:11:07;;;;;;;;;;;;;;;4.62;100.00;100883.53;5089438;28;20406;-66
2024/03/22 05:13:32;;;;;;;;;;;;;;;4.66;100.00;100890.28;5073087;28;19940;-68
2024/03/22 05:15:57;;;;;;;;;;;;;;;4.66;100.00;100876.25;5071244;28;20494;-67
2024/03/22 05:18:23;;;;;;;;;;;;;;;4.59;100.00;100872.41;5073058;28;19920;-68
2024/03/22 05:20:48;;;;;;;;;;;;;;;4.55;100.00;100881.53;5072973;28;20279;-69
2024/03/22 05:23:15;;;;;;;;;;;;;;;4.51;100.00;100883.56;5073469;28;20299;-66
2024/03/22 05:25:41;;;;;;;;;;;;;;;4.44;100.00;100879.75;5073157;28;19970;-68
2024/03/22 05:28:07;;;;;;;;;;;;;;;4.44;100.00;100878.91;5072816;28;19967;-67
2024/03/22 05:30:32;;;;;;;;;;;;;;;4.42;100.00;100878.19;5073080;28;20007;-68
2024/03/22 05:32:58;;;;;;;;;;;;;;;4.43;100.00;100872.78;5069633;28;19930;-66
2024/03/22 05:35:23;;;;;;;;;;;;;;;4.46;100.00;100867.28;5071097;28;20353;-66
2024/03/22 05:37:49;;;;;;;;;;;;;;;4.46;100.00;100867.28;5071518;28;19920;-68
2024/03/22 05:40:14;;;;;;;;;;;;;;;4.50;100.00;100860.78;5070549;28;19986;-69
2024/03/22 05:42:40;;;;;;;;;;;;;;;4.54;100.00;100854.31;5072616;28;19920;-68
2024/03/22 05:45:08;;;;;;;;;;;;;;;4.55;100.00;100849.88;5071511;28;20379;-71
2024/03/22 05:47:33;;;;;;;;;;;;;;;4.58;100.00;100854.91;5072148;28;20435;-66
2024/03/22 05:50:00;;;;;;;;;;;;;;;4.66;100.00;100848.06;5087650;28;20023;-70
2024/03/22 05:52:31;;;;;;;;;;;;;;;4.69;100.00;100852.28;5071507;28;20387;-69
2024/03/22 05:54:57;;;;;;;;;;;;;;;4.77;100.00;100851.66;5054610;28;19921;-68
2024/03/22 05:57:22;;;;;;;;;;;;;;;4.76;100.00;100847.34;5072697;28;19928;-70
2024/03/22 05:59:53;;;;;;;;;;;;;;;4.75;100.00;100843.84;5090540;28;19920;-69
2024/03/22 06:02:18;;;;;;;;;;;;;;;4.74;100.00;100836.91;5073272;28;20449;-69
2024/03/22 06:04:43;;;;;;;;;;;;;;;4.70;100.00;100829.38;5071849;28;19920;-69
2024/03/22 06:07:09;;;;;;;;;;;;;;;4.69;100.00;100827.69;5069758;28;19928;-66
2024/03/22 06:09:45;;;;;;;;;;;;;;;4.70;100.00;100829.38;5070520;28;19928;-69
2024/03/22 06:12:10;;;;;;;;;;;;;;;4.72;100.00;100830.06;5072041;28;19968;-70
2024/03/22 06:14:36;;;;;;;;;;;;;;;4.70;100.00;100826.72;5072519;28;20411;-66
2024/03/22 06:17:03;;;;;;;;;;;;;;;4.70;100.00;100822.28;5072335;28;19920;-70
2024/03/22 06:19:28;;;;;;;;;;;;;;;4.75;100.00;100819.28;5072129;28;20292;-70
2024/03/22 06:21:53;;;;;;;;;;;;;;;4.78;100.00;100808.47;5071782;28;19925;-66
2024/03/22 06:24:19;;;;;;;;;;;;;;;4.75;100.00;100819.28;5070468;28;19932;-67
2024/03/22 06:26:44;;;;;;;;;;;;;;;4.75;100.00;100824.56;5087398;28;20038;-66
2024/03/22 06:29:09;;;;;;;;;;;;;;;4.77;100.00;100822.63;5071983;28;19991;-67
2024/03/22 06:31:35;;;;;;;;;;;;;;;4.78;100.00;100821.66;5072116;28;19924;-73
2024/03/22 06:34:02;;;;;;;;;;;;;;;4.81;100.00;100814.34;5070671;28;19998;-66
2024/03/22 06:36:33;;;;;;;;;;;;;;;4.83;100.00;100817.69;5069495;28;20303;-66
2024/03/22 06:38:59;;;;;;;;;;;;;;;4.77;100.00;100827.91;5070522;28;19920;-66
2024/03/22 06:41:25;;;;;;;;;;;;;;;4.76;100.00;100811.22;5071506;28;19924;-70
2024/03/22 06:43:51;;;;;;;;;;;;;;;4.80;100.00;100811.81;5070017;28;19920;-66
2024/03/22 06:46:16;;;;;;;;;;;;;;;4.87;100.00;100815.63;5070108;28;19921;-66
2024/03/22 06:48:42;;;;;;;;;;;;;;;4.84;100.00;100815.88;5070160;28;20000;-67
2024/03/22 06:51:07;;;;;;;;;;;;;;;4.78;100.00;100827.78;5071943;28;19932;-70
2024/03/22 06:53:33;;;;;;;;;;;;;;;4.72;100.00;100816.88;5091888;28;19919;-67
2024/03/22 06:55:58;;;;;;;;;;;;;;;4.65;100.00;100819.19;5091407;28;20007;-67
2024/03/22 06:58:23;;;;;;;;;;;;;;;4.54;100.00;100811.28;5091433;28;19920;-65
2024/03/22 07:00:49;;;;;;;;;;;;;;;4.53;100.00;100810.44;5091168;28;19920;-68
2024/03/22 07:03:14;;;;;;;;;;;;;;;4.52;100.00;100813.19;5090387;28;19924;-67
2024/03/22 07:05:39;;;;;;;;;;;;;;;4.50;100.00;100810.69;5091613;28;19920;-66
2024/03/22 07:08:05;;;;;;;;;;;;;;;4.54;100.00;100806.84;5089753;28;19920;-73
2024/03/22 07:10:31;;;;;;;;;;;;;;;4.52;100.00;100803.47;5090848;28;19920;-67
2024/03/22 07:12:56;;;;;;;;;;;;;;;4.44;100.00;100795.34;5091122;28;19963;-74
2024/03/22 07:15:25;;;;;;;;;;;;;;;4.41;100.00;100794.75;5092095;28;20387;-68
2024/03/22 07:17:51;;;;;;;;;;;;;;;4.39;100.00;100784.34;5091198;28;19920;-66
2024/03/22 07:20:16;;;;;;;;;;;;;;;4.43;100.00;100782.28;5093072;28;20291;-65
2024/03/22 07:22:42;;;;;;;;;;;;;;;4.48;100.00;100778.31;5091956;28;20429;-68
2024/03/22 07:25:09;;;;;;;;;;;;;;;4.54;100.00;100774.34;5089427;28;19931;-66
2024/03/22 07:27:36;;;;;;;;;;;;;;;4.49;100.00;100763.34;5091713;28;19928;-68
2024/03/22 07:30:02;;;;;;;;;;;;;;;4.52;100.00;100761.28;5085743;28;19925;-70
2024/03/22 07:32:30;;;;;;;;;;;;;;;4.57;100.00;100761.75;5071357;28;19924;-69
2024/03/22 07:34:55;;;;;;;;;;;;;;;4.58;100.00;100760.78;5069184;28;20023;-71
2024/03/22 07:37:20;;;;;;;;;;;;;;;4.58;100.00;100755.50;5070531;28;20023;-69
2024/03/22 07:39:46;;;;;;;;;;;;;;;4.63;100.00;100755.16;5069696;28;19968;-69
2024/03/22 07:42:11;;;;;;;;;;;;;;;4.66;100.00;100747.84;5052752;28;20284;-67
2024/03/22 07:44:36;;;;;;;;;;;;;;;4.66;100.00;100737.28;5071590;28;19921;-70
2024/03/22 07:47:02;;;;;;;;;;;;;;;4.68;100.00;100738.97;5053088;28;19920;-70
2024/03/22 07:49:27;;;;;;;;;;;;;;;4.65;100.00;100732.97;5071163;28;20011;-69
2024/03/22 07:51:53;;;;;;;;;;;;;;;4.68;100.00;100728.41;5071177;28;20014;-64
2024/03/22 07:54:19;;;;;;;;;;;;;;;4.70;100.00;100726.47;5070763;28;19958;-68
2024/03/22 07:56:44;;;;;;;;;;;;;;;4.69;100.00;100724.81;5070797;28;20368;-67
2024/03/22 07:59:09;;;;;;;;;;;;;;;4.74;100.00;100727.91;5069441;28;19921;-70
2024/03/22 08:01:35;;;;;;;;;;;;;;;4.84;100.00;100726.16;5062155;28;19959;-69
2024/03/22 08:04:00;;;;;;;;;;;;;;;4.91;100.00;100720.25;5053308;28;19920;-70
2024/03/22 08:06:25;;;;;;;;;;;;;;;4.94;100.00;100722.66;5060877;28;19921;-69
2024/03/22 08:08:51;;;;;;;;;;;;;;;4.93;100.00;100710.44;5063727;28;19920;-70
2024/03/22 08:11:16;;;;;;;;;;;;;;;4.91;100.00;100711.50;5059262;28;19963;-69
2024/03/22 08:13:43;;;;;;;;;;;;;;;4.91;100.00;100703.56;5053547;28;19921;-70
2024/03/22 08:16:08;;;;;;;;;;;;;;;4.88;100.00;100707.31;5064408;28;19920;-70
2024/03/22 08:18:34;;;;;;;;;;;;;;;4.91;100.00;100698.28;5072197;28;20303;-68
2024/03/22 08:20:59;;;;;;;;;;;;;;;4.97;100.00;100692.53;5074342;28;19943;-66
2024/03/22 08:23:24;;;;;;;;;;;;;;;4.98;100.00;100689.75;5072270;28;20356;-66
2024/03/22 08:25:50;;;;;;;;;;;;;;;5.01;100.00;100688.66;5078534;28;19925;-71
2024/03/22 08:28:16;;;;;;;;;;;;;;;5.07;100.00;100682.88;5079522;28;19931;-69
2024/03/22 08:30:42;;;;;;;;;;;;;;;5.11;100.00;100681.63;5077536;28;19920;-71
2024/03/22 08:33:07;;;;;;;;;;;;;;;5.08;100.00;100678.41;5060153;28;20335;-69
2024/03/22 08:35:32;;;;;;;;;;;;;;;5.07;100.00;100677.59;5079094;28;19941;-67
2024/03/22 08:37:58;;;;;;;;;;;;;;;5.03;100.00;100672.69;5075243;28;19920;-69
2024/03/22 08:40:24;;;;;;;;;;;;;;;5.05;100.00;100671.59;5073904;28;19927;-69
2024/03/22 08:42:49;;;;;;;;;;;;;;;5.00;100.00;100671.16;5070878;28;19920;-67
2024/03/22 08:45:16;;;;;;;;;;;;;;;5.01;100.00;100667.56;5074421;28;19924;-69
2024/03/22 08:47:42;;;;;;;;;;;;;;;5.04;100.00;100677.00;5074152;28;19921;-68
2024/03/22 08:50:07;;;;;;;;;;;;;;;5.01;100.00;100664.91;5072819;28;19920;-72
2024/03/22 08:52:34;;;;;;;;;;;;;;;5.04;100.00;100663.81;5074184;28;20018;-67
2024/03/22 08:54:59;;;;;;;;;;;;;;;5.04;100.00;100663.81;5072889;28;19973;-67
2024/03/22 08:57:24;;;;;;;;;;;;;;;5.11;100.00;100657.88;5073972;28;19932;-68
2024/03/22 08:59:50;;;;;;;;;;;;;;;5.17;100.00;100662.63;5073906;28;19928;-68
2024/03/22 09:02:16;;;;;;;;;;;;;;;5.18;100.00;100647.63;5073729;28;19920;-66
2024/03/22 09:04:41;;;;;;;;;;;;;;;5.19;100.00;100655.41;5073661;28;19920;-70
2024/03/22 09:07:07;;;;;;;;;;;;;;;5.24;100.00;100647.13;5072625;28;19920;-69
2024/03/22 09:09:32;;;;;;;;;;;;;;;5.21;100.00;100642.13;5073897;28;19956;-69
2024/03/22 09:11:57;;;;;;;;;;;;;;;5.19;100.00;100642.22;5073753;28;19920;-68
2024/03/22 09:14:23;;;;;;;;;;;;;;;5.23;100.00;100641.00;5073201;28;19924;-68
2024/03/22 09:16:48;;;;;;;;;;;;;;;5.28;100.00;100633.53;5072274;28;19920;-68
2024/03/22 09:19:13;;;;;;;;;;;;;;;5.21;100.00;100636.84;5073662;28;19927;-66
2024/03/22 09:21:39;;;;;;;;;;;;;;;5.22;100.00;100631.41;5072276;28;19924;-71
2024/03/22 09:24:05;;;;;;;;;;;;;;;5.12;100.00;100627.88;5073140;28;20011;-67
2024/03/22 09:26:32;;;;;;;;;;;;;;;5.07;100.00;100623.97;5072168;28;19964;-69
2024/03/22 09:28:57;;;;;;;;;;;;;;;4.97;100.00;100621.28;5073420;28;19989;-69
2024/03/22 09:31:22;;;;;;;;;;;;;;;4.99;100.00;100616.69;5071848;28;20415;-71
2024/03/22 09:33:48;;;;;;;;;;;;;;;5.02;100.00;100616.44;5073212;28;19989;-68
2024/03/22 09:36:13;;;;;;;;;;;;;;;4.97;100.00;100613.34;5055594;28;20307;-68
2024/03/22 09:38:38;;;;;;;;;;;;;;;4.96;100.00;100607.25;5072631;28;19927;-68
2024/03/22 09:41:07;;;;;;;;;;;;;;;4.96;100.00;100606.41;5071760;28;21586;-68
2024/03/22 09:43:33;;;;;;;;;;;;;;;4.94;100.00;100600.44;5074247;28;19938;-69
2024/03/22 09:45:58;;;;;;;;;;;;;;;5.02;100.00;100595.31;5073820;28;20030;-67
2024/03/22 09:48:24;;;;;;;;;;;;;;;5.04;100.00;100603.09;5075305;28;20311;-70
2024/03/22 09:50:50;;;;;;;;;;;;;;;5.02;100.00;100602.41;5074576;28;20391;-69
2024/03/22 09:53:19;;;;;;;;;;;;;;;5.02;100.00;100590.03;5075226;28;19931;-68
2024/03/22 09:55:48;;;;;;;;;;;;;;;5.11;100.00;100583.97;5073552;28;19928;-67
2024/03/22 09:58:13;;;;;;;;;;;;;;;5.09;100.00;100574.50;5073243;28;19920;-69
2024/03/22 10:00:39;;;;;;;;;;;;;;;5.07;100.00;100573.81;5073491;28;19928;-68
2024/03/22 10:03:04;;;;;;;;;;;;;;;5.07;100.00;100572.00;5073607;28;19921;-66
2024/03/22 10:05:30;;;;;;;;;;;;;;;5.03;100.00;100573.25;5073141;28;19927;-68
2024/03/22 10:07:55;;;;;;;;;;;;;;;5.01;100.00;100567.25;5073452;28;20394;-66
2024/03/22 10:10:21;;;;;;;;;;;;;;;5.02;100.00;100563.66;5073107;28;20437;-70
2024/03/22 10:12:47;;;;;;;;;;;;;;;4.98;100.00;100567.53;5073114;28;19948;-69
2024/03/22 10:15:12;;;;;;;;;;;;;;;4.94;100.00;100551.13;5070936;28;19920;-69
2024/03/22 10:17:39;;;;;;;;;;;;;;;4.97;100.00;100557.94;5072372;28;19920;-68
2024/03/22 10:20:09;;;;;;;;;;;;;;;4.98;100.00;100554.31;5072358;28;19927;-68
2024/03/22 10:22:34;;;;;;;;;;;;;;;5.01;100.00;100561.97;5072394;28;19977;-69
2024/03/22 10:25:02;;;;;;;;;;;;;;;4.98;100.00;100555.16;5070992;28;20018;-69
2024/03/22 10:27:29;;;;;;;;;;;;;;;5.03;100.00;100554.75;5072545;28;20022;-70
2024/03/22 10:29:55;;;;;;;;;;;;;;;5.02;100.00;100558.38;5072335;28;19959;-65
2024/03/22 10:32:22;;;;;;;;;;;;;;;5.05;100.00;100550.19;5070898;28;20461;-69
2024/03/22 10:34:49;;;;;;;;;;;;;;;5.08;100.00;100555.19;5071750;28;19920;-67
2024/03/22 10:37:15;;;;;;;;;;;;;;;5.05;100.00;100546.72;5071595;28;19921;-70
2024/03/22 10:39:42;;;;;;;;;;;;;;;5.03;100.00;100551.28;5071543;28;19921;-70
2024/03/22 10:42:07;;;;;;;;;;;;;;;5.02;100.00;100553.09;5071916;28;20311;-71
2024/03/22 10:44:32;;;;;;;;;;;;;;;5.02;100.00;100557.53;5070211;28;19920;-67
2024/03/22 10:47:01;;;;;;;;;;;;;;;5.01;100.00;100550.59;5071529;28;19924;-70
2024/03/22 10:49:28;;;;;;;;;;;;;;;5.00;100.00;100547.13;5070345;28;19924;-67
2024/03/22 10:51:59;;;;;;;;;;;;;;;5.02;100.00;100547.81;5069684;28;19935;-68
2024/03/22 10:54:28;;;;;;;;;;;;;;;4.96;100.00;100545.72;5070212;28;19933;-67
2024/03/22 10:56:54;;;;;;;;;;;;;;;5.00;100.00;100543.63;5071073;28;19920;-68
2024/03/22 10:59:20;;;;;;;;;;;;;;;5.06;100.00;100543.94;5071267;28;19920;-69
2024/03/22 11:01:46;;;;;;;;;;;;;;;5.09;100.00;100537.56;5069437;28;20027;-70
2024/03/22 11:04:12;;;;;;;;;;;;;;;5.07;100.00;100524.50;5070457;28;20019;-66
2024/03/22 11:06:37;;;;;;;;;;;;;;;5.05;100.00;100531.72;5052959;28;19927;-68
2024/03/22 11:09:07;;;;;;;;;;;;;;;5.01;100.00;100525.03;5070474;28;20251;-69
2024/03/22 11:11:37;;;;;;;;;;;;;;;4.90;100.00;100527.75;5070735;28;19920;-67
2024/03/22 11:14:03;;;;;;;;;;;;;;;4.90;100.00;100527.75;5070098;28;19920;-68
2024/03/22 11:16:29;;;;;;;;;;;;;;;4.93;100.00;100524.88;5071083;28;19920;-70
2024/03/22 11:18:58;;;;;;;;;;;;;;;4.93;100.00;100520.41;5069850;28;19928;-69
2024/03/22 11:21:23;;;;;;;;;;;;;;;4.92;100.00;100517.91;5071081;28;19920;-67
2024/03/22 11:23:50;;;;;;;;;;;;;;;4.90;100.00;100510.09;5070970;28;20303;-69
2024/03/22 11:26:16;;;;;;;;;;;;;;;4.94;100.00;100511.53;5070871;28;19978;-70
2024/03/22 11:28:42;;;;;;;;;;;;;;;4.96;100.00;100501.69;5053002;28;19924;-70
2024/03/22 11:31:07;;;;;;;;;;;;;;;5.04;100.00;100493.09;5053062;28;20093;-67
2024/03/22 11:33:33;;;;;;;;;;;;;;;5.13;100.00;100497.56;5070435;28;19943;-69
2024/03/22 11:35:59;;;;;;;;;;;;;;;5.16;100.00;100494.66;5069644;28;19931;-70
2024/03/22 11:38:26;;;;;;;;;;;;;;;5.20;100.00;100492.56;5070259;28;20461;-68
2024/03/22 11:40:52;;;;;;;;;;;;;;;5.24;100.00;100492.19;5074906;28;19985;-69
2024/03/22 11:43:18;;;;;;;;;;;;;;;5.29;100.00;100482.06;5056293;28;19983;-67
2024/03/22 11:45:44;;;;;;;;;;;;;;;5.39;100.00;100475.94;5075024;28;20453;-70
2024/03/22 11:48:09;;;;;;;;;;;;;;;5.45;100.00;100467.47;5074966;28;19920;-67
2024/03/22 11:50:35;;;;;;;;;;;;;;;5.52;100.00;100463.34;5074483;28;20395;-68
2024/03/22 11:53:02;;;;;;;;;;;;;;;5.45;100.00;100447.19;5074336;28;19924;-69
2024/03/22 11:55:30;;;;;;;;;;;;;;;5.69;100.00;100457.34;5074060;28;19924;-69
2024/03/22 11:57:57;;;;;;;;;;;;;;;5.90;100.00;100459.91;5074716;28;19924;-68
2024/03/22 12:00:22;;;;;;;;;;;;;;;6.00;100.00;100454.59;5073256;28;19987;-71
2024/03/22 12:02:48;;;;;;;;;;;;;;;6.13;100.00;100440.13;5074219;28;20462;-67
2024/03/22 12:05:13;;;;;;;;;;;;;;;6.21;100.00;100439.41;5075029;28;20011;-68
2024/03/22 12:07:40;;;;;;;;;;;;;;;6.20;100.00;100440.38;5056543;28;19921;-69
2024/03/22 12:10:05;;;;;;;;;;;;;;;6.24;100.00;100436.47;5073820;28;20020;-67
2024/03/22 12:12:31;;;;;;;;;;;;;;;6.27;100.00;100433.53;5074131;28;20023;-68
2024/03/22 12:14:56;;;;;;;;;;;;;;;6.20;100.00;100429.81;5074264;28;19927;-66
2024/03/22 12:17:22;;;;;;;;;;;;;;;6.13;100.00;100423.44;5072774;28;19921;-68
2024/03/22 12:19:47;;;;;;;;;;;;;;;6.10;100.00;100424.53;5074389;28;19947;-66
2024/03/22 12:22:13;;;;;;;;;;;;;;;6.10;100.00;100413.13;5056192;28;19920;-70
2024/03/22 12:24:38;;;;;;;;;;;;;;;5.92;100.00;100406.91;5074525;28;19924;-69
2024/03/22 12:27:04;;;;;;;;;;;;;;;5.70;100.00;100410.63;5075723;28;20023;-67